createdAt,value
2017-10-29T00:01:31.237Z,2.57
2017-10-29T00:03:57.978Z,2.03
2017-10-29T00:06:24.804Z,2.13
2017-10-29T00:08:51.375Z,1.80
2017-10-29T00:11:18.190Z,1.60
2017-10-29T00:13:45.026Z,1.67
2017-10-29T00:16:11.746Z,2.03
2017-10-29T00:18:38.407Z,2.33
2017-10-29T00:21:05.288Z,1.80
2017-10-29T00:23:31.988Z,2.50
2017-10-29T00:25:58.539Z,3.20
2017-10-29T00:28:25.028Z,1.70
2017-10-29T00:30:52.213Z,3.03
2017-10-29T00:33:18.836Z,1.97
2017-10-29T00:35:45.398Z,1.50
2017-10-29T00:38:12.786Z,3.70
2017-10-29T00:40:40.398Z,3.10
2017-10-29T00:43:07.147Z,2.93
2017-10-29T00:45:33.816Z,2.83
2017-10-29T00:48:01.391Z,2.20
2017-10-29T00:50:28.141Z,2.47
2017-10-29T00:52:54.899Z,1.90
2017-10-29T00:55:21.601Z,2.90
2017-10-29T00:57:48.230Z,3.77
2017-10-29T01:00:14.765Z,2.43
2017-10-29T01:02:41.397Z,2.27
2017-10-29T01:05:08.145Z,2.27
2017-10-29T01:07:35.775Z,2.87
2017-10-29T01:10:02.525Z,1.90
2017-10-29T01:12:29.228Z,2.10
2017-10-29T01:14:55.777Z,2.13
2017-10-29T01:17:22.328Z,1.50
2017-10-29T01:19:49.684Z,2.07
2017-10-29T01:22:16.225Z,3.10
2017-10-29T01:24:42.826Z,2.70
2017-10-29T01:27:09.420Z,2.10
2017-10-29T01:29:35.899Z,2.10
2017-10-29T01:32:04.444Z,2.47
2017-10-29T01:34:31.134Z,2.00
2017-10-29T01:36:57.861Z,1.90
2017-10-29T01:39:24.523Z,2.73
2017-10-29T01:41:51.046Z,2.70
2017-10-29T01:44:17.643Z,2.37
2017-10-29T01:46:44.261Z,2.00
2017-10-29T01:49:10.961Z,3.43
2017-10-29T01:51:38.457Z,2.63
2017-10-29T01:54:05.078Z,4.37
2017-10-29T01:56:31.783Z,3.90
2017-10-29T01:58:58.316Z,4.27
2017-10-29T02:01:24.911Z,3.87
2017-10-29T02:03:51.550Z,3.60
2017-10-29T02:06:18.988Z,3.97
2017-10-29T02:08:45.533Z,1.90
2017-10-29T02:11:12.244Z,2.63
2017-10-29T02:13:38.939Z,2.93
2017-10-29T02:16:05.500Z,3.20
2017-10-29T02:18:32.290Z,4.00
2017-10-29T02:20:58.954Z,3.53
2017-10-29T02:23:25.711Z,3.67
2017-10-29T02:25:52.964Z,2.80
2017-10-29T02:28:19.529Z,3.40
2017-10-29T02:30:46.235Z,4.00
2017-10-29T02:33:13.231Z,3.97
2017-10-29T02:35:40.607Z,4.07
2017-10-29T02:38:07.219Z,2.93
2017-10-29T02:40:34.038Z,3.90
2017-10-29T02:43:01.174Z,4.70
2017-10-29T02:45:27.902Z,4.07
2017-10-29T02:47:55.316Z,5.47
2017-10-29T02:50:22.128Z,4.00
2017-10-29T02:52:48.877Z,3.67
2017-10-29T02:55:16.277Z,4.43
2017-10-29T02:57:43.672Z,3.10
2017-10-29T03:00:11.781Z,3.90
2017-10-29T03:02:46.791Z,4.20
2017-10-29T03:05:13.597Z,2.53
2017-10-29T03:07:40.127Z,3.07
2017-10-29T03:10:07.121Z,2.50
2017-10-29T03:12:34.210Z,2.03
2017-10-29T03:15:01.137Z,4.03
2017-10-29T03:17:28.059Z,2.80
2017-10-29T03:19:54.752Z,2.20
2017-10-29T03:22:21.521Z,4.10
2017-10-29T03:24:48.525Z,4.77
2017-10-29T03:27:15.199Z,3.13
2017-10-29T03:29:42.103Z,3.20
2017-10-29T03:32:08.784Z,3.90
2017-10-29T03:34:35.467Z,4.10
2017-10-29T03:37:02.118Z,2.90
2017-10-29T03:39:29.017Z,3.90
2017-10-29T03:41:55.623Z,3.20
2017-10-29T03:44:22.268Z,4.77
2017-10-29T03:46:50.931Z,3.20
2017-10-29T03:49:19.232Z,4.00
2017-10-29T03:51:46.563Z,3.20
2017-10-29T03:54:14.096Z,3.33
2017-10-29T03:56:40.810Z,4.23
2017-10-29T03:59:07.607Z,5.30
2017-10-29T04:01:34.478Z,3.30
2017-10-29T04:04:01.165Z,4.50
2017-10-29T04:06:27.736Z,3.90
2017-10-29T04:08:54.586Z,3.17
2017-10-29T04:11:21.192Z,3.27
2017-10-29T04:13:48.040Z,3.90
2017-10-29T04:16:15.037Z,4.00
2017-10-29T04:18:41.755Z,3.47
2017-10-29T04:21:08.460Z,4.60
2017-10-29T04:23:35.142Z,5.63
2017-10-29T04:26:01.817Z,3.80
2017-10-29T04:28:29.247Z,3.60
2017-10-29T04:30:56.088Z,4.67
2017-10-29T04:33:23.489Z,4.73
2017-10-29T04:35:51.093Z,3.77
2017-10-29T04:38:18.616Z,3.33
2017-10-29T04:40:45.892Z,3.80
2017-10-29T04:43:12.598Z,3.37
2017-10-29T04:45:39.314Z,3.80
2017-10-29T04:48:06.084Z,3.70
2017-10-29T04:50:32.589Z,3.73
2017-10-29T04:52:59.360Z,5.00
2017-10-29T04:55:27.020Z,2.87
2017-10-29T04:57:54.856Z,2.43
2017-10-29T05:00:21.497Z,2.90
2017-10-29T05:02:48.910Z,2.63
2017-10-29T05:05:16.616Z,2.97
2017-10-29T05:07:43.552Z,3.90
2017-10-29T05:10:10.251Z,4.03
2017-10-29T05:12:37.896Z,2.50
2017-10-29T05:15:04.591Z,2.13
2017-10-29T05:17:31.199Z,2.50
2017-10-29T05:19:58.115Z,3.50
2017-10-29T05:22:24.860Z,3.83
2017-10-29T05:24:51.507Z,2.30
2017-10-29T05:27:18.333Z,2.50
2017-10-29T05:29:46.932Z,2.43
2017-10-29T05:32:14.710Z,3.27
2017-10-29T05:34:41.383Z,2.93
2017-10-29T05:37:09.611Z,2.77
2017-10-29T05:39:36.433Z,2.73
2017-10-29T05:42:03.932Z,2.47
2017-10-29T05:44:31.056Z,2.50
2017-10-29T05:46:58.544Z,2.70
2017-10-29T05:49:28.947Z,2.93
2017-10-29T05:51:55.554Z,2.37
2017-10-29T05:54:22.296Z,2.30
2017-10-29T05:56:49.035Z,2.80
2017-10-29T05:59:15.771Z,2.57
2017-10-29T06:01:42.469Z,2.60
2017-10-29T06:04:09.278Z,2.17
2017-10-29T06:06:36.114Z,2.30
2017-10-29T06:09:02.751Z,1.80
2017-10-29T06:11:29.647Z,1.60
2017-10-29T06:13:56.357Z,2.10
2017-10-29T06:16:22.976Z,1.43
2017-10-29T06:18:50.161Z,2.20
2017-10-29T06:21:17.136Z,2.80
2017-10-29T06:23:43.928Z,2.30
2017-10-29T06:26:10.911Z,2.20
2017-10-29T06:28:37.640Z,2.63
2017-10-29T06:31:04.264Z,2.87
2017-10-29T06:33:31.657Z,2.17
2017-10-29T06:35:58.342Z,2.10
2017-10-29T06:38:25.019Z,2.07
2017-10-29T06:40:51.622Z,1.70
2017-10-29T06:43:18.192Z,3.10
2017-10-29T06:45:45.706Z,2.27
2017-10-29T06:48:12.923Z,2.13
2017-10-29T06:50:39.655Z,1.93
2017-10-29T06:53:07.843Z,3.27
2017-10-29T06:55:34.588Z,2.00
2017-10-29T06:58:01.358Z,2.00
2017-10-29T07:00:27.996Z,1.87
2017-10-29T07:02:54.603Z,1.63
2017-10-29T07:05:21.212Z,1.60
2017-10-29T07:07:48.008Z,2.20
2017-10-29T07:10:14.673Z,1.83
2017-10-29T07:12:41.851Z,1.37
2017-10-29T07:15:08.570Z,1.73
2017-10-29T07:17:35.122Z,2.40
2017-10-29T07:20:02.501Z,1.50
2017-10-29T07:22:29.200Z,2.00
2017-10-29T07:24:55.777Z,1.60
2017-10-29T07:27:22.364Z,1.67
2017-10-29T07:29:49.098Z,1.47
2017-10-29T07:32:15.601Z,1.37
2017-10-29T07:34:42.574Z,1.30
2017-10-29T07:37:09.060Z,1.83
2017-10-29T07:39:36.828Z,1.17
2017-10-29T07:42:03.526Z,2.20
2017-10-29T07:44:30.209Z,1.60
2017-10-29T07:46:56.982Z,1.40
2017-10-29T07:49:24.013Z,1.87
2017-10-29T07:51:50.623Z,2.17
2017-10-29T07:54:17.350Z,1.60
2017-10-29T07:56:45.205Z,1.87
2017-10-29T07:59:11.969Z,1.40
2017-10-29T08:01:39.353Z,1.60
2017-10-29T08:04:06.041Z,2.50
2017-10-29T08:06:32.686Z,2.00
2017-10-29T08:08:59.803Z,2.30
2017-10-29T08:11:27.250Z,1.80
2017-10-29T08:13:53.828Z,1.50
2017-10-29T08:16:21.450Z,1.83
2017-10-29T08:18:48.352Z,1.37
2017-10-29T08:21:15.105Z,2.03
2017-10-29T08:23:42.560Z,1.27
2017-10-29T08:26:09.149Z,1.37
2017-10-29T08:28:35.692Z,1.40
2017-10-29T08:31:02.410Z,1.33
2017-10-29T08:33:28.951Z,1.20
2017-10-29T08:35:55.509Z,1.80
2017-10-29T08:38:23.401Z,1.53
2017-10-29T08:40:52.930Z,2.00
2017-10-29T08:43:19.514Z,2.13
2017-10-29T08:45:46.232Z,1.23
2017-10-29T08:48:13.458Z,1.60
2017-10-29T08:50:40.228Z,1.70
2017-10-29T08:53:06.879Z,1.23
2017-10-29T08:55:33.685Z,2.70
2017-10-29T08:58:00.319Z,2.20
2017-10-29T09:00:27.104Z,1.17
2017-10-29T09:02:53.688Z,1.97
2017-10-29T09:05:20.374Z,1.60
2017-10-29T09:07:48.022Z,1.40
2017-10-29T09:10:15.020Z,1.20
2017-10-29T09:12:41.610Z,1.13
2017-10-29T09:15:08.308Z,1.20
2017-10-29T09:17:34.865Z,1.27
2017-10-29T09:20:01.470Z,1.43
2017-10-29T09:22:28.949Z,1.90
2017-10-29T09:24:55.675Z,1.23
2017-10-29T09:27:23.255Z,1.33
2017-10-29T09:29:50.251Z,1.63
2017-10-29T09:32:17.297Z,1.70
2017-10-29T09:34:44.758Z,1.70
2017-10-29T09:37:11.688Z,1.20
2017-10-29T09:39:38.221Z,1.50
2017-10-29T09:42:04.773Z,1.30
2017-10-29T09:44:31.603Z,1.50
2017-10-29T09:46:58.248Z,2.67
2017-10-29T09:49:26.601Z,1.43
2017-10-29T09:51:54.963Z,1.30
2017-10-29T09:54:22.515Z,1.50
2017-10-29T09:56:49.195Z,1.47
2017-10-29T09:59:17.711Z,1.20
2017-10-29T10:01:45.730Z,1.20
2017-10-29T10:06:45.690Z,1.07
2017-10-29T10:09:12.305Z,1.50
2017-10-29T10:11:38.842Z,1.20
2017-10-29T10:14:07.006Z,1.10
2017-10-29T10:16:34.913Z,1.30
2017-10-29T10:19:02.207Z,1.30
2017-10-29T10:21:28.893Z,1.30
2017-10-29T10:23:55.444Z,2.10
2017-10-29T10:26:22.028Z,1.97
2017-10-29T10:28:48.753Z,1.30
2017-10-29T10:31:15.531Z,1.80
2017-10-29T10:33:49.024Z,1.20
2017-10-29T10:36:15.594Z,1.90
2017-10-29T10:38:42.097Z,1.40
2017-10-29T10:41:08.681Z,1.80
2017-10-29T10:43:36.123Z,1.07
2017-10-29T10:46:02.888Z,1.40
2017-10-29T10:48:29.550Z,1.40
2017-10-29T10:50:56.257Z,1.20
2017-10-29T10:53:24.347Z,1.43
2017-10-29T10:55:50.900Z,1.30
2017-10-29T10:58:17.508Z,1.20
2017-10-29T11:00:44.196Z,1.23
2017-10-29T11:03:11.578Z,1.20
2017-10-29T11:05:38.205Z,1.20
2017-10-29T11:08:04.837Z,1.63
2017-10-29T11:10:31.375Z,1.20
2017-10-29T11:12:57.912Z,1.50
2017-10-29T11:15:24.694Z,1.20
2017-10-29T11:17:52.759Z,1.30
2017-10-29T11:20:19.396Z,1.13
2017-10-29T11:22:46.546Z,1.40
2017-10-29T11:25:13.187Z,1.90
2017-10-29T11:27:39.996Z,1.50
2017-10-29T11:30:07.552Z,1.47
2017-10-29T11:32:34.396Z,1.17
2017-10-29T11:35:01.949Z,1.10
2017-10-29T11:37:29.376Z,1.20
2017-10-29T11:39:56.034Z,1.20
2017-10-29T11:42:25.027Z,1.40
2017-10-29T11:44:52.511Z,1.17
2017-10-29T11:47:19.135Z,1.83
2017-10-29T11:49:46.793Z,1.20
2017-10-29T11:52:15.176Z,1.40
2017-10-29T11:54:41.771Z,1.07
2017-10-29T11:57:08.475Z,1.13
2017-10-29T11:59:35.254Z,1.53
2017-10-29T12:02:01.828Z,1.00
2017-10-29T12:04:28.421Z,1.50
2017-10-29T12:06:55.139Z,1.60
2017-10-29T12:09:21.984Z,1.30
2017-10-29T12:11:48.687Z,3.10
2017-10-29T12:14:15.525Z,1.60
2017-10-29T12:16:42.886Z,1.10
2017-10-29T12:19:09.614Z,1.80
2017-10-29T12:21:36.939Z,1.60
2017-10-29T12:24:03.864Z,1.93
2017-10-29T12:26:30.467Z,1.53
2017-10-29T12:28:58.069Z,1.67
2017-10-29T12:31:25.041Z,1.50
2017-10-29T12:33:52.023Z,1.07
2017-10-29T12:36:18.795Z,1.60
2017-10-29T12:38:46.377Z,1.50
2017-10-29T12:41:13.153Z,1.50
2017-10-29T12:43:40.745Z,1.63
2017-10-29T12:46:09.564Z,1.50
2017-10-29T12:48:37.268Z,1.67
2017-10-29T12:51:03.900Z,2.13
2017-10-29T12:53:33.631Z,1.43
2017-10-29T12:56:01.340Z,1.57
2017-10-29T12:58:28.702Z,1.80
2017-10-29T13:00:55.899Z,1.40
2017-10-29T13:03:22.847Z,1.87
2017-10-29T13:05:49.568Z,1.30
2017-10-29T13:08:16.346Z,1.67
2017-10-29T13:10:43.862Z,1.60
2017-10-29T13:13:10.643Z,1.70
2017-10-29T13:15:37.355Z,1.00
2017-10-29T13:18:03.950Z,1.07
2017-10-29T13:20:30.700Z,0.90
2017-10-29T13:22:57.522Z,1.17
2017-10-29T13:25:24.243Z,1.53
2017-10-29T13:27:51.744Z,1.10
2017-10-29T13:30:18.516Z,1.57
2017-10-29T13:32:45.257Z,1.50
2017-10-29T13:35:12.360Z,1.50
2017-10-29T13:37:39.144Z,1.60
2017-10-29T13:40:05.795Z,1.20
2017-10-29T13:42:32.741Z,1.30
2017-10-29T13:44:59.445Z,1.47
2017-10-29T13:47:27.772Z,1.57
2017-10-29T13:49:54.859Z,1.27
2017-10-29T13:52:21.592Z,2.17
2017-10-29T13:54:50.350Z,1.17
2017-10-29T13:57:17.418Z,1.40
2017-10-29T13:59:44.240Z,1.63
2017-10-29T14:02:11.641Z,1.63
2017-10-29T14:04:38.421Z,1.43
2017-10-29T14:07:05.871Z,1.70
2017-10-29T14:09:32.721Z,1.30
2017-10-29T14:11:59.384Z,1.70
2017-10-29T14:14:26.160Z,1.57
2017-10-29T14:16:52.838Z,1.40
2017-10-29T14:19:19.477Z,1.10
2017-10-29T14:21:46.325Z,1.70
2017-10-29T14:24:13.197Z,2.33
2017-10-29T14:26:40.023Z,1.50
2017-10-29T14:29:06.713Z,1.00
2017-10-29T14:31:33.447Z,2.20
2017-10-29T14:34:00.968Z,1.50
2017-10-29T14:36:27.819Z,2.07
2017-10-29T14:38:54.698Z,1.60
2017-10-29T14:41:22.272Z,1.10
2017-10-29T14:43:49.092Z,1.30
2017-10-29T14:46:15.680Z,1.10
2017-10-29T14:48:42.750Z,1.10
2017-10-29T14:51:09.561Z,1.30
2017-10-29T14:53:36.270Z,1.10
2017-10-29T14:56:02.891Z,1.40
2017-10-29T14:58:29.624Z,1.40
2017-10-29T15:00:56.397Z,1.63
2017-10-29T15:03:22.953Z,1.20
2017-10-29T15:05:49.535Z,1.20
2017-10-29T15:08:16.327Z,1.30
2017-10-29T15:10:42.843Z,1.20
2017-10-29T15:13:09.603Z,1.07
2017-10-29T15:15:36.289Z,1.40
2017-10-29T15:18:03.017Z,1.10
2017-10-29T15:20:29.651Z,1.27
2017-10-29T15:22:56.293Z,1.27
2017-10-29T15:25:22.962Z,1.37
2017-10-29T15:27:49.580Z,1.10
2017-10-29T15:30:16.263Z,1.10
2017-10-29T15:32:43.038Z,1.13
2017-10-29T15:35:09.918Z,1.00
2017-10-29T15:37:36.745Z,1.20
2017-10-29T15:40:03.665Z,1.23
2017-10-29T15:42:30.351Z,1.20
2017-10-29T15:44:57.135Z,1.53
2017-10-29T15:47:23.847Z,1.73
2017-10-29T15:49:50.700Z,1.20
2017-10-29T15:52:17.507Z,1.20
2017-10-29T15:54:44.775Z,1.60
2017-10-29T15:57:11.339Z,1.40
2017-10-29T15:59:38.012Z,1.60
2017-10-29T16:02:04.531Z,1.30
2017-10-29T16:04:31.118Z,1.20
2017-10-29T16:06:58.534Z,1.40
2017-10-29T16:09:25.167Z,1.30
2017-10-29T16:11:51.874Z,1.20
2017-10-29T16:14:18.519Z,1.83
2017-10-29T16:16:45.233Z,1.50
2017-10-29T16:19:11.897Z,1.43
2017-10-29T16:21:38.432Z,1.20
2017-10-29T16:24:05.154Z,1.40
2017-10-29T16:26:31.761Z,1.20
2017-10-29T16:28:58.391Z,1.30
2017-10-29T16:31:24.944Z,1.53
2017-10-29T16:33:51.627Z,1.00
2017-10-29T16:36:18.371Z,1.20
2017-10-29T16:38:45.084Z,1.00
2017-10-29T16:41:12.273Z,1.57
2017-10-29T16:43:38.788Z,0.97
2017-10-29T16:46:05.529Z,1.10
2017-10-29T16:48:32.260Z,1.23
2017-10-29T16:50:59.415Z,1.50
2017-10-29T16:53:25.941Z,0.90
2017-10-29T16:55:53.104Z,1.00
2017-10-29T16:58:19.800Z,1.17
2017-10-29T17:00:47.203Z,1.40
2017-10-29T17:03:14.134Z,0.83
2017-10-29T17:05:41.351Z,1.17
2017-10-29T17:08:08.135Z,0.90
2017-10-29T17:10:36.117Z,1.67
2017-10-29T17:13:02.765Z,1.00
2017-10-29T17:15:29.689Z,1.20
2017-10-29T17:17:56.532Z,0.83
2017-10-29T17:20:23.374Z,1.30
2017-10-29T17:22:50.120Z,1.20
2017-10-29T17:25:16.827Z,1.87
2017-10-29T17:27:43.877Z,1.63
2017-10-29T17:30:12.285Z,1.40
2017-10-29T17:32:39.568Z,1.10
2017-10-29T17:35:06.880Z,1.00
2017-10-29T17:37:33.684Z,1.50
2017-10-29T17:40:00.321Z,1.07
2017-10-29T17:42:26.928Z,1.20
2017-10-29T17:44:53.809Z,1.20
2017-10-29T17:47:20.668Z,1.57
2017-10-29T17:49:47.197Z,1.20
2017-10-29T17:52:14.030Z,1.63
2017-10-29T17:54:40.747Z,2.00
2017-10-29T17:57:07.647Z,1.90
2017-10-29T17:59:34.562Z,1.50
2017-10-29T18:02:01.509Z,1.60
2017-10-29T18:04:28.355Z,1.57
2017-10-29T18:06:55.025Z,2.07
2017-10-29T18:09:21.805Z,1.20
2017-10-29T18:11:49.372Z,1.30
2017-10-29T18:14:16.151Z,1.00
2017-10-29T18:16:42.778Z,1.37
2017-10-29T18:19:09.428Z,1.50
2017-10-29T18:21:36.053Z,1.40
2017-10-29T18:24:03.347Z,1.10
2017-10-29T18:26:30.318Z,1.27
2017-10-29T18:28:57.788Z,1.20
2017-10-29T18:31:24.522Z,0.93
2017-10-29T18:33:52.072Z,2.03
2017-10-29T18:36:18.814Z,1.80
2017-10-29T18:38:45.733Z,1.20
2017-10-29T18:41:13.303Z,1.00
2017-10-29T18:43:40.682Z,1.50
2017-10-29T18:46:07.558Z,1.00
2017-10-29T18:48:34.229Z,1.20
2017-10-29T18:51:00.989Z,1.30
2017-10-29T18:53:27.691Z,1.13
2017-10-29T18:55:54.741Z,1.47
2017-10-29T18:58:21.697Z,1.67
2017-10-29T19:00:48.491Z,1.10
2017-10-29T19:03:15.227Z,1.10
2017-10-29T19:05:42.224Z,1.27
2017-10-29T19:08:09.132Z,1.30
2017-10-29T19:10:36.216Z,1.20
2017-10-29T19:13:03.075Z,1.37
2017-10-29T19:15:30.202Z,1.07
2017-10-29T19:17:57.024Z,1.60
2017-10-29T19:20:24.774Z,2.07
2017-10-29T19:22:51.586Z,1.20
2017-10-29T19:25:18.177Z,1.30
2017-10-29T19:27:44.887Z,1.10
2017-10-29T19:30:12.319Z,1.30
2017-10-29T19:32:38.912Z,1.60
2017-10-29T19:35:05.684Z,1.07
2017-10-29T19:37:33.322Z,1.40
2017-10-29T19:40:00.113Z,1.40
2017-10-29T19:42:27.024Z,1.53
2017-10-29T19:44:54.469Z,1.30
2017-10-29T19:47:22.109Z,1.30
2017-10-29T19:49:49.299Z,1.10
2017-10-29T19:52:16.904Z,1.60
2017-10-29T19:54:44.948Z,1.27
2017-10-29T19:57:11.830Z,1.10
2017-10-29T19:59:39.264Z,1.33
2017-10-29T20:02:06.593Z,1.13
2017-10-29T20:04:33.429Z,1.33
2017-10-29T20:07:00.196Z,1.87
2017-10-29T20:09:27.717Z,1.47
2017-10-29T20:11:54.415Z,2.57
2017-10-29T20:14:21.942Z,1.50
2017-10-29T20:16:48.672Z,1.50
2017-10-29T20:19:15.432Z,1.70
2017-10-29T20:21:42.886Z,1.30
2017-10-29T20:24:09.594Z,1.47
2017-10-29T20:26:36.500Z,1.60
2017-10-29T20:29:03.792Z,1.17
2017-10-29T20:31:31.992Z,1.60
2017-10-29T20:33:59.695Z,1.60
2017-10-29T20:36:27.034Z,1.73
2017-10-29T20:38:53.849Z,1.10
2017-10-29T20:41:21.491Z,1.40
2017-10-29T20:43:49.046Z,1.43
2017-10-29T20:46:15.944Z,1.60
2017-10-29T20:48:42.755Z,1.60
2017-10-29T20:51:10.849Z,1.20
2017-10-29T20:53:37.879Z,1.80
2017-10-29T20:56:05.463Z,1.30
2017-10-29T20:58:32.892Z,1.37
2017-10-29T21:00:59.710Z,3.30
2017-10-29T21:03:26.474Z,1.90
2017-10-29T21:05:54.532Z,1.67
2017-10-29T21:08:21.390Z,1.53
2017-10-29T21:10:48.429Z,2.00
2017-10-29T21:13:15.684Z,2.57
2017-10-29T21:15:42.928Z,1.60
2017-10-29T21:18:09.712Z,1.47
2017-10-29T21:20:37.722Z,1.40
2017-10-29T21:23:04.376Z,1.50
2017-10-29T21:25:33.127Z,2.17
2017-10-29T21:28:00.044Z,1.70
2017-10-29T21:30:27.750Z,2.53
2017-10-29T21:32:54.815Z,2.53
2017-10-29T21:35:21.751Z,1.90
2017-10-29T21:37:55.313Z,2.57
2017-10-29T21:40:22.512Z,1.50
2017-10-29T21:42:49.138Z,2.20
2017-10-29T21:45:15.873Z,1.50
2017-10-29T21:47:43.414Z,1.57
2017-10-29T21:50:10.931Z,1.80
2017-10-29T21:52:38.338Z,1.67
2017-10-29T21:55:05.387Z,1.47
2017-10-29T21:57:33.376Z,1.90
2017-10-29T22:00:01.000Z,1.87
2017-10-29T22:02:28.842Z,1.77
2017-10-29T22:04:56.437Z,1.93
2017-10-29T22:07:24.760Z,1.30
2017-10-29T22:09:52.162Z,1.53
2017-10-29T22:12:18.808Z,1.50
2017-10-29T22:14:45.444Z,1.37
2017-10-29T22:17:12.336Z,1.30
2017-10-29T22:19:39.107Z,1.47
2017-10-29T22:22:06.548Z,1.47
2017-10-29T22:24:33.696Z,1.50
2017-10-29T22:27:00.334Z,1.87
2017-10-29T22:29:27.712Z,1.37
2017-10-29T22:31:54.320Z,1.83
2017-10-29T22:34:21.663Z,1.53
2017-10-29T22:36:48.926Z,2.50
2017-10-29T22:39:15.623Z,1.87
2017-10-29T22:41:42.404Z,2.10
2017-10-29T22:44:09.200Z,1.30
2017-10-29T22:46:35.969Z,1.33
2017-10-29T22:49:03.643Z,1.20
2017-10-29T22:51:30.278Z,1.47
2017-10-29T22:53:57.217Z,1.33
2017-10-29T22:56:23.862Z,1.40
2017-10-29T22:58:50.572Z,1.30
2017-10-29T23:01:18.137Z,1.03
2017-10-29T23:03:44.925Z,1.20
2017-10-29T23:06:23.814Z,1.47
2017-10-29T23:08:54.040Z,1.67
2017-10-29T23:11:21.216Z,1.20
2017-10-29T23:13:47.912Z,1.83
2017-10-29T23:16:14.840Z,1.50
2017-10-29T23:18:42.280Z,2.00
2017-10-29T23:21:10.072Z,1.70
2017-10-29T23:23:36.776Z,1.40
2017-10-29T23:26:04.262Z,1.53
2017-10-29T23:28:31.579Z,2.23
2017-10-29T23:30:59.042Z,1.60
2017-10-29T23:33:26.716Z,1.90
2017-10-29T23:35:53.627Z,2.23
2017-10-29T23:38:20.438Z,1.57
2017-10-29T23:40:47.507Z,2.20
2017-10-29T23:43:14.103Z,1.93
2017-10-29T23:45:41.747Z,2.27
2017-10-29T23:48:08.338Z,1.80
2017-10-29T23:50:34.984Z,1.53
2017-10-29T23:53:01.987Z,1.40
2017-10-29T23:55:28.938Z,1.73
2017-10-29T23:57:55.684Z,1.83
